Time;durP1;ratioP1;P1;durP2;ratioP2;P2;SDS_P1;SDS_P2;PMS_P1;PMS_P2;Temp;Humidity;BMP_temperature;BMP_pressure;BME280_temperature;BME280_humidity;BME280_pressure;Samples;Min_cycle;Max_cycle;Signal;HPM_P1;HPM_P2
2022/03/27 00:00:27;;;;;;;12.67;8.40;;;;;;;13.91;31.88;95426.44;5050179;28;20488;-81
2022/03/27 00:02:53;;;;;;;10.73;8.43;;;;;;;13.88;32.72;95427.63;5068317;28;20199;-82
2022/03/27 00:05:18;;;;;;;17.53;9.77;;;;;;;14.06;32.09;95429.75;5038763;28;20175;-82
2022/03/27 00:07:44;;;;;;;13.87;9.10;;;;;;;14.02;31.57;95429.31;5048996;28;20197;-82
2022/03/27 00:10:09;;;;;;;13.80;9.87;;;;;;;13.53;32.76;95426.84;5039305;28;20193;-82
2022/03/27 00:12:35;;;;;;;20.27;10.60;;;;;;;13.21;33.45;95434.28;5061943;28;20226;-83
2022/03/27 00:15:01;;;;;;;17.10;11.00;;;;;;;13.31;33.89;95421.63;5048329;28;20175;-82
2022/03/27 00:17:29;;;;;;;15.60;10.73;;;;;;;12.86;33.96;95428.94;5061309;28;20210;-82
2022/03/27 00:19:56;;;;;;;20.07;13.40;;;;;;;12.96;33.58;95431.25;5047692;28;20424;-82
2022/03/27 00:22:26;;;;;;;16.47;12.80;;;;;;;12.89;33.96;95423.31;5055546;28;20419;-82
2022/03/27 00:24:51;;;;;;;22.33;13.83;;;;;;;12.55;34.32;95432.69;5049280;28;20413;-82
2022/03/27 00:27:17;;;;;;;24.37;14.03;;;;;;;12.72;34.38;95419.31;5057085;28;20421;-82
2022/03/27 00:29:42;;;;;;;17.30;12.97;;;;;;;12.40;34.33;95419.59;5063925;28;20692;-82
2022/03/27 00:32:08;;;;;;;24.70;14.70;;;;;;;12.47;34.40;95411.81;5050212;28;20177;-82
2022/03/27 00:34:33;;;;;;;18.63;13.37;;;;;;;12.73;34.18;95413.06;5056543;28;20214;-82
2022/03/27 00:36:59;;;;;;;28.23;14.80;;;;;;;12.61;34.42;95416.19;5060671;28;20226;-82
2022/03/27 00:39:24;;;;;;;29.93;16.20;;;;;;;12.78;34.27;95413.31;5057920;28;20182;-82
2022/03/27 00:41:51;;;;;;;16.87;14.80;;;;;;;12.65;34.72;95401.69;5029806;28;20287;-82
2022/03/27 00:44:17;;;;;;;25.93;15.60;;;;;;;12.78;34.18;95402.81;5049282;28;20178;-82
2022/03/27 00:46:43;;;;;;;21.37;15.60;;;;;;;12.57;34.27;95398.38;5059478;28;20487;-82
2022/03/27 00:49:09;;;;;;;19.80;15.90;;;;;;;12.17;34.67;95404.03;5055510;28;20486;-82
2022/03/27 00:51:35;;;;;;;21.83;15.33;;;;;;;12.52;34.80;95398.13;5040363;28;20840;-82
2022/03/27 00:54:01;;;;;;;20.00;15.60;;;;;;;12.60;34.41;95387.50;5052067;28;20431;-82
2022/03/27 00:56:26;;;;;;;15.17;12.33;;;;;;;12.63;33.79;95384.47;5032667;28;20430;-82
2022/03/27 00:58:52;;;;;;;23.53;16.57;;;;;;;12.63;33.86;95387.91;5043600;28;20183;-81
2022/03/27 01:01:25;;;;;;;20.47;14.77;;;;;;;12.27;34.86;95393.22;5066530;28;20202;-82
2022/03/27 01:03:54;;;;;;;21.20;15.40;;;;;;;12.20;35.03;95387.91;5040280;28;20176;-82
2022/03/27 01:06:31;;;;;;;24.03;14.30;;;;;;;12.31;34.83;95383.97;5049331;28;21067;-82
2022/03/27 01:11:41;;;;;;;20.37;13.83;;;;;;;12.33;34.90;95382.00;5051645;28;20420;-82
2022/03/27 01:14:09;;;;;;;22.20;14.50;;;;;;;12.19;35.33;95378.41;5037632;28;20418;-82
2022/03/27 01:16:37;;;;;;;20.77;13.20;;;;;;;12.46;34.87;95376.88;5052955;28;20181;-82
2022/03/27 01:19:03;;;;;;;17.67;12.97;;;;;;;12.33;34.78;95381.16;5049936;28;20418;-81
2022/03/27 01:21:29;;;;;;;21.93;14.53;;;;;;;12.19;35.31;95375.78;5055349;28;20558;-82
2022/03/27 01:23:55;;;;;;;21.53;13.63;;;;;;;12.17;35.15;95376.97;5049246;28;20417;-82
2022/03/27 01:26:22;;;;;;;21.03;12.27;;;;;;;12.00;35.34;95381.63;5050834;28;20198;-81
2022/03/27 01:28:47;;;;;;;20.20;13.40;;;;;;;12.15;35.82;95382.41;5058691;28;20890;-81
2022/03/27 01:31:13;;;;;;;21.00;12.67;;;;;;;11.73;36.12;95386.53;5050075;28;20426;-81
2022/03/27 01:33:38;;;;;;;19.10;13.60;;;;;;;12.14;35.59;95386.03;5055198;28;20186;-82
2022/03/27 01:36:04;;;;;;;21.60;12.30;;;;;;;11.73;36.09;95376.06;5048036;28;20186;-82
2022/03/27 01:38:30;;;;;;;40.67;18.00;;;;;;;11.27;36.84;95376.25;5055671;28;20170;-82
2022/03/27 01:40:55;;;;;;;22.70;14.37;;;;;;;11.71;36.43;95388.53;5048650;28;20456;-82
2022/03/27 01:43:21;;;;;;;20.90;14.30;;;;;;;11.03;37.66;95372.06;5059502;28;20266;-82
2022/03/27 01:45:46;;;;;;;17.80;12.87;;;;;;;11.36;36.24;95383.00;5046298;28;20159;-82
2022/03/27 01:48:11;;;;;;;17.93;12.47;;;;;;;11.37;36.80;95379.41;5039777;28;20179;-82
2022/03/27 01:50:37;;;;;;;19.43;11.93;;;;;;;10.71;37.54;95377.41;5056854;28;20186;-82
2022/03/27 01:53:02;;;;;;;33.93;13.80;;;;;;;11.17;36.79;95386.16;5048315;28;20238;-82
2022/03/27 01:55:28;;;;;;;24.03;13.90;;;;;;;11.06;36.26;95385.63;5043357;28;20163;-79
2022/03/27 01:57:53;;;;;;;24.63;13.77;;;;;;;11.41;36.13;95383.28;5040025;28;20187;-80
2022/03/27 02:00:19;;;;;;;27.13;12.87;;;;;;;10.93;36.44;95382.81;5027603;28;20201;-82
2022/03/27 02:02:45;;;;;;;19.53;12.63;;;;;;;11.01;36.98;95382.72;5028148;28;20180;-82
2022/03/27 02:05:11;;;;;;;16.20;11.37;;;;;;;10.88;36.69;95374.66;5015869;28;20173;-82
2022/03/27 02:07:42;;;;;;;27.53;12.33;;;;;;;11.11;35.94;95385.88;5026360;28;20179;-82
2022/03/27 02:10:08;;;;;;;15.83;11.00;;;;;;;11.06;36.52;95388.25;5026989;28;20439;-82
2022/03/27 02:12:35;;;;;;;19.20;11.80;;;;;;;10.96;37.63;95389.50;5026353;28;20427;-81
2022/03/27 02:15:01;;;;;;;16.20;11.60;;;;;;;11.04;37.08;95382.38;5017003;28;20416;-82
2022/03/27 02:17:26;;;;;;;17.43;12.33;;;;;;;10.96;37.68;95385.06;5026274;28;20434;-81
2022/03/27 02:19:52;;;;;;;20.20;13.13;;;;;;;11.03;37.01;95383.34;5031324;28;20415;-82
2022/03/27 02:22:17;;;;;;;21.90;13.07;;;;;;;11.17;37.14;95394.84;5013556;28;20533;-82
2022/03/27 02:24:43;;;;;;;18.93;13.20;;;;;;;10.94;37.79;95387.03;5030764;28;20168;-82
2022/03/27 02:27:08;;;;;;;29.70;14.37;;;;;;;11.06;37.64;95390.03;5030925;28;20172;-82
2022/03/27 02:29:33;;;;;;;15.93;12.03;;;;;;;10.88;37.29;95393.00;5046136;28;20165;-82
2022/03/27 02:31:59;;;;;;;18.97;13.50;;;;;;;10.65;38.80;95390.41;5030080;28;20192;-82
2022/03/27 02:34:26;;;;;;;29.30;15.17;;;;;;;10.56;38.32;95400.13;5013349;28;20203;-82
2022/03/27 02:36:51;;;;;;;19.60;15.30;;;;;;;10.83;37.88;95395.31;5011255;28;20179;-81
2022/03/27 02:39:17;;;;;;;21.10;14.00;;;;;;;10.85;37.68;95393.34;4993925;28;20448;-81
2022/03/27 02:41:42;;;;;;;21.70;13.07;;;;;;;11.00;38.03;95396.81;5011221;28;20208;-81
2022/03/27 02:44:09;;;;;;;18.50;13.00;;;;;;;10.49;38.39;95407.03;5012384;28;20181;-81
2022/03/27 02:46:34;;;;;;;17.13;12.90;;;;;;;10.87;38.09;95404.44;5030518;28;20470;-82
2022/03/27 02:49:00;;;;;;;24.10;15.40;;;;;;;10.45;38.14;95408.38;5017632;28;20428;-82
2022/03/27 02:51:25;;;;;;;20.93;12.83;;;;;;;11.14;37.56;95406.50;5016681;28;20191;-80
2022/03/27 02:53:51;;;;;;;19.97;13.43;;;;;;;11.33;36.60;95412.22;5062274;28;20230;-80
2022/03/27 02:56:16;;;;;;;20.70;13.83;;;;;;;10.77;38.07;95414.38;5065520;28;20215;-82
2022/03/27 02:58:42;;;;;;;21.07;13.20;;;;;;;10.39;39.11;95419.53;5060804;28;20201;-81
2022/03/27 03:01:07;;;;;;;17.23;11.70;;;;;;;10.35;38.97;95422.50;5066065;28;20573;-81
2022/03/27 03:03:33;;;;;;;19.53;14.03;;;;;;;10.33;39.16;95421.06;5031972;28;20179;-81
2022/03/27 03:06:01;;;;;;;15.83;12.70;;;;;;;10.44;38.79;95422.47;5063511;28;20179;-81
2022/03/27 03:08:27;;;;;;;18.50;12.10;;;;;;;10.56;39.30;95426.28;5039326;28;20434;-81
2022/03/27 03:10:53;;;;;;;20.00;13.30;;;;;;;10.52;39.16;95425.00;5064269;28;20511;-82
2022/03/27 03:13:18;;;;;;;15.77;11.67;;;;;;;10.12;39.84;95424.25;5061554;28;20426;-81
2022/03/27 03:15:44;;;;;;;16.23;12.20;;;;;;;10.30;39.51;95424.84;5031712;28;20171;-82
2022/03/27 03:18:10;;;;;;;18.30;12.27;;;;;;;10.26;39.39;95420.91;5053756;28;20175;-81
2022/03/27 03:20:37;;;;;;;17.50;12.20;;;;;;;10.26;39.75;95428.75;5040317;28;20206;-81
2022/03/27 03:23:03;;;;;;;14.20;11.23;;;;;;;10.44;38.71;95417.22;5068945;28;20480;-81
2022/03/27 03:25:29;;;;;;;19.40;12.50;;;;;;;10.26;39.29;95415.69;5056826;28;20418;-80
2022/03/27 03:27:56;;;;;;;22.50;12.53;;;;;;;10.37;39.19;95421.53;5047749;28;20183;-82
2022/03/27 03:30:22;;;;;;;18.50;11.67;;;;;;;10.29;38.88;95417.94;5051762;28;20441;-82
2022/03/27 03:32:48;;;;;;;18.60;12.23;;;;;;;10.64;38.98;95413.16;5069303;28;20429;-81
2022/03/27 03:35:14;;;;;;;18.93;11.10;;;;;;;10.41;39.52;95415.75;5058593;28;20426;-81
2022/03/27 03:37:40;;;;;;;16.50;11.70;;;;;;;10.29;39.08;95419.75;5044714;28;20421;-82
2022/03/27 03:40:07;;;;;;;15.87;11.07;;;;;;;10.30;39.01;95413.50;5058982;28;20178;-81
2022/03/27 03:42:36;;;;;;;15.50;11.17;;;;;;;10.40;38.43;95416.75;5051003;28;20180;-82
2022/03/27 03:45:03;;;;;;;20.47;11.93;;;;;;;10.50;38.54;95419.94;5059265;28;20486;-81
2022/03/27 03:47:29;;;;;;;17.27;11.87;;;;;;;10.88;37.90;95419.19;5048774;28;20509;-82
2022/03/27 03:49:54;;;;;;;19.33;11.87;;;;;;;10.71;38.13;95415.88;5048806;28;20434;-82
2022/03/27 03:52:20;;;;;;;24.67;12.40;;;;;;;10.51;38.56;95423.41;5062771;28;20225;-81
2022/03/27 03:54:45;;;;;;;17.33;12.10;;;;;;;10.36;39.44;95420.72;5056851;28;20183;-81
2022/03/27 03:57:11;;;;;;;21.77;12.10;;;;;;;10.75;38.53;95419.78;5051032;28;20202;-81
2022/03/27 03:59:36;;;;;;;15.33;11.43;;;;;;;10.57;38.51;95429.72;5051400;28;20211;-81
2022/03/27 04:02:05;;;;;;;20.50;11.97;;;;;;;10.64;38.37;95423.63;5060986;28;20381;-81
2022/03/27 04:04:32;;;;;;;15.93;10.80;;;;;;;10.64;38.46;95425.41;5049274;28;20422;-82
2022/03/27 04:06:59;;;;;;;13.87;11.43;;;;;;;10.51;38.92;95429.44;5048684;28;20426;-82
2022/03/27 04:09:25;;;;;;;19.70;12.63;;;;;;;10.76;38.96;95437.13;5037987;28;20539;-81
2022/03/27 04:11:51;;;;;;;15.93;10.50;;;;;;;10.45;39.59;95439.78;5056805;28;20421;-82
2022/03/27 04:14:16;;;;;;;19.17;13.10;;;;;;;10.42;39.86;95440.94;5062241;28;20422;-82
2022/03/27 04:16:42;;;;;;;18.20;12.20;;;;;;;10.39;39.45;95445.72;5059510;28;20185;-82
2022/03/27 04:19:07;;;;;;;23.47;11.80;;;;;;;10.39;39.77;95454.38;5059419;28;20238;-82
2022/03/27 04:21:33;;;;;;;17.30;12.57;;;;;;;10.79;38.75;95451.66;5065683;28;20206;-82
2022/03/27 04:23:58;;;;;;;21.00;12.37;;;;;;;10.39;40.16;95453.56;5053744;28;20649;-81
2022/03/27 04:26:23;;;;;;;16.40;11.87;;;;;;;10.59;39.15;95454.75;5050148;28;20175;-81
2022/03/27 04:28:49;;;;;;;23.00;12.60;;;;;;;10.80;38.79;95454.09;5034710;28;20183;-82
2022/03/27 04:31:14;;;;;;;26.67;13.23;;;;;;;10.58;39.67;95462.75;5047361;28;20249;-81
2022/03/27 04:33:40;;;;;;;22.87;12.57;;;;;;;10.37;40.57;95458.16;5047662;28;20250;-82
2022/03/27 04:36:06;;;;;;;20.93;12.50;;;;;;;10.32;40.22;95456.88;5053493;28;20265;-81
2022/03/27 04:38:31;;;;;;;22.40;12.20;;;;;;;10.32;40.03;95461.28;5037065;28;20213;-81
2022/03/27 04:40:57;;;;;;;16.63;11.63;;;;;;;10.55;39.66;95461.31;5054088;28;20217;-82
2022/03/27 04:43:22;;;;;;;26.10;12.83;;;;;;;10.45;39.77;95466.78;5063716;28;20183;-81
2022/03/27 04:45:49;;;;;;;20.57;12.93;;;;;;;10.52;40.06;95472.94;5050029;28;20195;-81
2022/03/27 04:48:14;;;;;;;25.17;13.07;;;;;;;10.59;40.04;95472.25;5047904;28;20179;-82
2022/03/27 04:50:40;;;;;;;20.50;12.70;;;;;;;10.64;40.28;95477.75;5064238;28;20469;-81
2022/03/27 04:53:06;;;;;;;25.73;14.10;;;;;;;10.83;39.88;95479.09;5058274;28;20231;-81
2022/03/27 04:55:31;;;;;;;17.77;12.43;;;;;;;10.70;39.31;95485.75;5061286;28;20182;-81
2022/03/27 04:57:56;;;;;;;17.53;12.70;;;;;;;10.78;39.41;95484.06;5046895;28;20181;-83
2022/03/27 05:00:22;;;;;;;24.93;14.17;;;;;;;10.74;39.31;95491.47;5062362;28;20213;-82
2022/03/27 05:02:47;;;;;;;22.73;12.60;;;;;;;10.46;40.33;95497.19;5060070;28;20198;-82
2022/03/27 05:05:15;;;;;;;22.13;12.57;;;;;;;10.59;39.32;95504.47;5047496;28;20175;-82
2022/03/27 05:07:43;;;;;;;19.30;13.10;;;;;;;10.60;39.80;95495.63;5054187;28;20178;-81
2022/03/27 05:10:10;;;;;;;22.97;13.93;;;;;;;10.67;38.84;95499.19;5067573;28;20896;-82
2022/03/27 05:12:36;;;;;;;19.53;12.70;;;;;;;10.73;38.83;95500.28;5049481;28;20444;-80
2022/03/27 05:15:03;;;;;;;22.03;12.90;;;;;;;11.11;38.10;95508.19;5067575;28;20408;-81
2022/03/27 05:17:28;;;;;;;23.70;13.60;;;;;;;10.85;38.67;95506.75;5048326;28;20441;-82
2022/03/27 05:19:54;;;;;;;17.33;12.87;;;;;;;11.26;38.22;95501.19;5038962;28;20437;-81
2022/03/27 05:22:19;;;;;;;18.30;12.30;;;;;;;10.91;37.94;95500.81;5051283;28;20206;-81
2022/03/27 05:24:46;;;;;;;19.43;12.87;;;;;;;10.95;38.67;95498.69;5067120;28;20955;-82
2022/03/27 05:27:12;;;;;;;20.97;14.77;;;;;;;11.00;38.33;95506.78;5047809;28;20180;-82
2022/03/27 05:29:38;;;;;;;15.87;13.70;;;;;;;11.11;38.09;95495.91;5049638;28;20418;-82
2022/03/27 05:32:04;;;;;;;19.13;12.93;;;;;;;11.37;37.38;95497.34;5049659;28;20839;-81
2022/03/27 05:34:29;;;;;;;20.77;14.27;;;;;;;11.71;37.00;95496.03;5035393;28;20428;-81
2022/03/27 05:36:55;;;;;;;26.17;15.70;;;;;;;11.37;37.57;95499.97;5060961;28;20434;-83
2022/03/27 05:39:20;;;;;;;22.37;15.93;;;;;;;11.60;37.45;95501.72;5050571;28;20190;-82
2022/03/27 05:41:46;;;;;;;19.57;12.23;;;;;;;11.75;37.41;95499.13;5060581;28;20271;-82
2022/03/27 05:44:11;;;;;;;27.67;15.00;;;;;;;11.96;36.64;95503.66;5046785;28;20189;-81
2022/03/27 05:46:37;;;;;;;16.57;11.50;;;;;;;12.08;36.44;95505.66;5059890;28;20179;-83
2022/03/27 05:49:02;;;;;;;19.17;12.20;;;;;;;12.01;36.45;95499.50;5062494;28;20650;-83
2022/03/27 05:51:28;;;;;;;21.30;13.50;;;;;;;12.15;36.28;95510.97;5048468;28;20167;-81
2022/03/27 05:53:53;;;;;;;17.73;12.20;;;;;;;11.85;36.64;95510.94;5051019;28;20673;-82
2022/03/27 05:56:19;;;;;;;18.47;13.70;;;;;;;11.79;36.89;95519.53;5046947;28;20249;-82
2022/03/27 05:58:44;;;;;;;17.83;12.53;;;;;;;11.59;36.76;95510.56;5059357;28;20281;-82
2022/03/27 06:01:10;;;;;;;19.70;13.00;;;;;;;12.45;35.94;95521.44;5070784;28;20198;-82
2022/03/27 06:03:35;;;;;;;20.17;13.33;;;;;;;12.24;35.57;95515.13;5070384;28;20179;-82
2022/03/27 06:06:02;;;;;;;21.03;14.00;;;;;;;12.38;35.22;95512.66;5041614;28;20179;-81
2022/03/27 06:08:27;;;;;;;18.37;12.53;;;;;;;12.31;35.67;95523.06;5055329;28;20255;-81
2022/03/27 06:10:53;;;;;;;16.40;12.40;;;;;;;12.54;34.53;95522.97;5045432;28;20920;-82
2022/03/27 06:13:24;;;;;;;16.90;12.80;;;;;;;12.26;35.43;95515.75;5070336;28;20178;-82
2022/03/27 06:15:51;;;;;;;19.70;13.10;;;;;;;12.49;35.00;95520.06;5070964;28;20258;-82
2022/03/27 06:18:17;;;;;;;22.33;13.60;;;;;;;12.70;34.72;95527.19;5049826;28;20441;-82
2022/03/27 06:20:43;;;;;;;21.17;12.83;;;;;;;12.84;34.39;95517.63;5032432;28;20466;-83
2022/03/27 06:23:08;;;;;;;20.87;12.70;;;;;;;12.88;34.37;95522.31;5049936;28;20468;-83
2022/03/27 06:25:35;;;;;;;22.03;12.20;;;;;;;13.26;34.11;95529.13;5048318;28;20179;-82
2022/03/27 06:28:00;;;;;;;22.53;12.93;;;;;;;13.57;33.79;95526.19;5050769;28;20180;-82
2022/03/27 06:30:28;;;;;;;26.17;15.03;;;;;;;12.53;35.05;95529.22;5050317;28;20501;-82
2022/03/27 06:32:54;;;;;;;19.33;12.00;;;;;;;13.21;33.87;95521.03;5032268;28;20635;-82
2022/03/27 06:35:22;;;;;;;24.57;12.77;;;;;;;13.35;33.28;95514.88;5049995;28;20485;-82
2022/03/27 06:37:48;;;;;;;19.60;13.33;;;;;;;13.58;33.83;95519.09;5067895;28;20230;-82
2022/03/27 06:40:15;;;;;;;20.43;13.57;;;;;;;13.35;34.44;95507.00;5051376;28;20438;-81
2022/03/27 06:42:42;;;;;;;17.37;13.57;;;;;;;13.76;33.55;95519.44;5038225;28;20422;-81
2022/03/27 06:45:08;;;;;;;15.73;13.07;;;;;;;13.67;33.16;95523.22;5058677;28;20453;-82
2022/03/27 06:47:34;;;;;;;20.13;12.43;;;;;;;13.72;32.06;95510.31;5049689;28;20454;-83
2022/03/27 06:50:02;;;;;;;18.60;13.70;;;;;;;14.25;32.15;95521.16;5049153;28;20422;-83
2022/03/27 06:52:28;;;;;;;14.70;11.87;;;;;;;13.99;32.60;95523.66;5058050;28;20237;-82
2022/03/27 06:54:55;;;;;;;15.50;11.60;;;;;;;13.43;33.46;95524.44;5069398;28;20855;-82
2022/03/27 06:57:21;;;;;;;17.93;13.30;;;;;;;14.44;32.84;95522.25;5060266;28;20545;-81
2022/03/27 07:05:16;;;;;;;22.93;15.70;;;;;;;14.10;33.18;95523.09;5051212;28;20414;-82
2022/03/27 07:07:42;;;;;;;20.87;16.07;;;;;;;14.63;32.62;95527.84;5044551;28;20431;-82
2022/03/27 07:10:08;;;;;;;23.83;15.63;;;;;;;14.02;33.63;95528.53;5057110;28;20189;-81
2022/03/27 07:12:34;;;;;;;21.30;14.63;;;;;;;14.92;31.60;95531.16;5055793;28;20434;-82
2022/03/27 07:14:59;;;;;;;25.00;16.40;;;;;;;15.19;31.74;95539.91;5062119;28;20507;-82
2022/03/27 07:17:25;;;;;;;29.73;16.23;;;;;;;14.64;32.17;95530.28;5057378;28;20175;-81
2022/03/27 07:19:51;;;;;;;21.17;16.73;;;;;;;15.40;31.72;95537.13;5047729;28;20192;-82
2022/03/27 07:22:18;;;;;;;19.73;15.87;;;;;;;15.91;30.99;95529.59;5051713;28;20457;-82
2022/03/27 07:24:45;;;;;;;24.50;18.10;;;;;;;15.30;31.75;95523.50;5058110;28;20421;-81
2022/03/27 07:27:10;;;;;;;28.60;17.70;;;;;;;15.61;30.80;95532.63;5038988;28;20429;-81
2022/03/27 07:29:37;;;;;;;28.97;18.33;;;;;;;16.03;30.14;95525.34;5057138;28;20430;-81
2022/03/27 07:32:04;;;;;;;23.83;17.67;;;;;;;16.00;30.06;95521.25;5059239;28;20175;-82
2022/03/27 07:34:29;;;;;;;29.37;18.70;;;;;;;15.57;31.29;95526.94;5058679;28;21022;-82
2022/03/27 07:36:55;;;;;;;20.20;17.73;;;;;;;15.84;31.33;95512.94;5058226;28;20437;-81
2022/03/27 07:39:21;;;;;;;24.40;20.17;;;;;;;16.19;30.53;95519.59;5062252;28;20198;-81
2022/03/27 07:41:47;;;;;;;27.00;18.50;;;;;;;15.82;30.77;95518.44;5059413;28;20198;-82
2022/03/27 07:44:13;;;;;;;22.37;18.27;;;;;;;15.93;31.01;95515.16;5051935;28;20429;-83
2022/03/27 07:46:39;;;;;;;27.67;19.70;;;;;;;16.75;29.68;95502.31;5051810;28;20549;-82
2022/03/27 07:49:05;;;;;;;28.40;18.90;;;;;;;16.37;30.36;95503.09;5057029;28;20191;-81
2022/03/27 07:51:31;;;;;;;24.40;18.43;;;;;;;16.09;30.15;95507.84;5040327;28;20501;-81
2022/03/27 07:53:56;;;;;;;20.10;15.40;;;;;;;16.67;28.78;95499.88;5032742;28;20498;-82
2022/03/27 07:56:22;;;;;;;22.13;13.83;;;;;;;17.30;28.32;95503.59;5042931;28;20198;-81
2022/03/27 07:58:48;;;;;;;22.03;11.60;;;;;;;17.23;26.90;95498.38;5022168;28;20183;-82
2022/03/27 08:01:15;;;;;;;16.37;7.23;;;;;;;17.33;25.60;95485.47;5037366;28;20223;-81
2022/03/27 08:03:41;;;;;;;12.60;8.93;;;;;;;17.72;25.00;95503.91;5036448;28;20442;-82
2022/03/27 08:06:07;;;;;;;19.07;10.17;;;;;;;17.87;25.56;95487.66;5039986;28;22248;-82
2022/03/27 08:08:33;;;;;;;13.70;9.00;;;;;;;17.42;24.92;95487.88;5042783;28;20446;-81
2022/03/27 08:10:58;;;;;;;14.57;9.40;;;;;;;17.90;24.94;95492.53;5046418;28;20406;-82
2022/03/27 08:13:24;;;;;;;14.13;9.47;;;;;;;18.08;24.96;95478.50;5019861;28;20184;-81
2022/03/27 08:15:49;;;;;;;13.13;7.57;;;;;;;17.22;25.58;95491.44;5039576;28;20185;-82
2022/03/27 08:18:15;;;;;;;16.33;10.20;;;;;;;17.85;25.51;95484.44;5040020;28;20187;-82
2022/03/27 08:20:40;;;;;;;14.03;10.53;;;;;;;18.49;24.22;95490.25;5039713;28;20200;-82
2022/03/27 08:23:07;;;;;;;15.70;10.40;;;;;;;18.17;24.31;95482.47;5037162;28;20183;-82
2022/03/27 08:28:20;;;;;;;15.00;10.80;;;;;;;18.93;23.69;95490.94;5041377;28;20566;-81
2022/03/27 08:30:46;;;;;;;16.47;11.60;;;;;;;18.42;24.12;95474.47;5038802;28;20419;-82
2022/03/27 08:33:12;;;;;;;16.13;11.10;;;;;;;19.11;23.76;95485.56;5026961;28;20866;-83
2022/03/27 08:35:42;;;;;;;8.13;6.43;;;;;;;18.51;24.41;95473.09;5034938;28;20434;-82
2022/03/27 08:38:17;;;;;;;16.57;12.23;;;;;;;19.82;22.77;95476.91;5040049;28;20429;-82
2022/03/27 08:40:45;;;;;;;18.70;11.90;;;;;;;19.06;23.84;95468.72;5034291;28;20469;-82
2022/03/27 08:43:17;;;;;;;19.23;9.07;;;;;;;18.95;23.26;95458.88;5041168;28;20434;-82
2022/03/27 08:45:44;;;;;;;17.23;11.80;;;;;;;19.23;23.62;95469.69;5037463;28;20411;-81
2022/03/27 08:48:10;;;;;;;14.87;9.90;;;;;;;19.29;23.60;95468.78;5027177;28;20717;-82
2022/03/27 08:50:39;;;;;;;12.50;8.50;;;;;;;18.90;23.56;95465.69;5034555;28;20429;-81
2022/03/27 08:53:07;;;;;;;22.50;10.03;;;;;;;18.68;24.08;95427.41;5055208;28;20474;-81
2022/03/27 08:55:50;;;;;;;17.10;10.23;;;;;;;19.26;23.39;95468.44;5043416;28;20457;-80
2022/03/27 08:58:18;;;;;;;21.80;9.97;;;;;;;19.99;23.12;95464.53;5058878;28;20417;-82
2022/03/27 09:00:44;;;;;;;12.90;10.50;;;;;;;19.84;23.01;95451.75;5050769;28;20449;-79
2022/03/27 09:03:10;;;;;;;16.80;11.50;;;;;;;20.16;22.65;95458.50;5054791;28;20941;-81
2022/03/27 09:05:39;;;;;;;17.03;10.63;;;;;;;20.33;22.09;95450.63;5036649;28;20175;-81
2022/03/27 09:08:13;;;;;;;25.70;11.33;;;;;;;20.00;22.53;95460.84;5056126;28;20189;-80
2022/03/27 09:10:40;;;;;;;13.87;10.70;;;;;;;19.60;22.69;95464.19;5040914;28;20417;-82
2022/03/27 09:13:13;;;;;;;17.70;11.93;;;;;;;20.37;22.23;95462.38;5055308;28;20951;-82
2022/03/27 09:15:41;;;;;;;25.60;12.73;;;;;;;19.88;22.90;95433.47;5036440;28;20493;-81
2022/03/27 09:18:11;;;;;;;14.87;10.90;;;;;;;19.67;22.77;95464.91;5053247;28;20416;-82
2022/03/27 09:20:41;;;;;;;14.57;11.70;;;;;;;19.93;22.54;95446.88;5046857;28;20513;-82
2022/03/27 09:23:21;;;;;;;14.07;10.30;;;;;;;19.21;22.94;95463.78;5050524;28;20924;-82
2022/03/27 09:26:03;;;;;;;16.83;12.07;;;;;;;20.13;21.89;95443.84;5051038;28;20418;-83
2022/03/27 09:28:32;;;;;;;16.17;11.60;;;;;;;20.37;21.81;95457.06;5035889;28;20500;-81
2022/03/27 09:31:01;;;;;;;18.10;10.43;;;;;;;19.50;21.76;95424.09;5054802;28;20472;-81
2022/03/27 09:33:37;;;;;;;17.10;9.60;;;;;;;19.36;22.15;95431.50;5050365;28;20531;-82
2022/03/27 09:36:11;;;;;;;14.90;10.47;;;;;;;20.27;21.69;95441.72;5052700;28;20421;-80
2022/03/27 09:38:38;;;;;;;16.30;12.50;;;;;;;20.65;21.18;95432.38;5054140;28;20499;-80
2022/03/27 09:41:07;;;;;;;18.33;12.90;;;;;;;20.57;20.79;95446.03;5052720;28;20480;-81
2022/03/27 09:43:33;;;;;;;17.13;10.10;;;;;;;19.86;21.09;95441.69;5052469;28;20489;-81
2022/03/27 09:46:01;;;;;;;18.03;11.93;;;;;;;20.10;20.62;95446.97;5034303;28;20430;-80
2022/03/27 09:48:28;;;;;;;15.17;10.70;;;;;;;21.12;19.87;95437.47;5054788;28;20414;-83
2022/03/27 09:50:57;;;;;;;11.43;8.23;;;;;;;20.00;20.33;95428.97;5056952;28;20871;-81
2022/03/27 09:53:23;;;;;;;18.17;10.60;;;;;;;20.11;20.61;95429.16;5057212;28;20466;-81
2022/03/27 09:55:58;;;;;;;15.27;10.27;;;;;;;21.10;19.91;95425.47;5057198;28;20445;-81
2022/03/27 09:58:36;;;;;;;19.57;10.10;;;;;;;21.54;20.09;95423.75;5043111;28;20185;-81
2022/03/27 10:01:12;;;;;;;21.37;10.90;;;;;;;21.97;18.89;95424.91;5053000;28;20472;-80
2022/03/27 10:03:59;;;;;;;16.03;10.33;;;;;;;20.59;20.45;95417.34;5052281;28;20427;-80
2022/03/27 10:06:33;;;;;;;18.50;11.23;;;;;;;21.40;19.59;95419.81;5052977;28;20556;-81
2022/03/27 10:09:03;;;;;;;13.00;9.60;;;;;;;21.37;19.24;95417.63;5049003;28;20419;-81
2022/03/27 10:11:29;;;;;;;11.73;8.90;;;;;;;21.35;19.94;95409.06;5041400;28;20428;-80
2022/03/27 10:13:55;;;;;;;16.23;10.00;;;;;;;20.99;19.80;95413.81;5049728;28;20959;-80
2022/03/27 10:16:26;;;;;;;9.73;8.10;;;;;;;20.76;19.52;95399.59;5033688;28;20481;-81
2022/03/27 10:19:06;;;;;;;11.40;8.60;;;;;;;21.54;18.53;95402.47;5033798;28;20186;-80
2022/03/27 10:21:34;;;;;;;15.77;8.30;;;;;;;21.43;18.71;95406.00;5054432;28;20540;-80
2022/03/27 10:24:15;;;;;;;9.87;7.10;;;;;;;21.31;18.61;95400.75;5056961;28;20481;-80
2022/03/27 10:26:43;;;;;;;9.63;7.90;;;;;;;21.99;18.24;95401.47;5050123;28;20449;-81
2022/03/27 10:29:10;;;;;;;9.70;7.67;;;;;;;21.80;18.03;95386.84;5051820;28;20434;-81
2022/03/27 10:31:36;;;;;;;11.87;8.50;;;;;;;21.25;18.72;95386.56;5036095;28;20428;-80
2022/03/27 10:34:05;;;;;;;7.03;6.33;;;;;;;20.98;18.59;95399.72;5054461;28;20416;-81
2022/03/27 10:36:57;;;;;;;12.07;9.10;;;;;;;20.96;18.55;95388.50;5051071;28;20476;-80
2022/03/27 10:39:49;;;;;;;10.83;7.50;;;;;;;22.02;17.99;95397.50;5052382;28;20399;-80
2022/03/27 10:42:38;;;;;;;11.07;8.07;;;;;;;22.38;17.78;95385.41;5054138;28;20476;-80
2022/03/27 10:45:15;;;;;;;14.50;9.20;;;;;;;22.38;17.60;95373.94;5053668;28;20402;-80
2022/03/27 10:47:41;;;;;;;12.43;9.30;;;;;;;21.77;18.14;95374.00;5054704;28;20433;-80
2022/03/27 10:50:08;;;;;;;12.97;7.67;;;;;;;21.51;18.92;95370.97;5040580;28;20432;-80
2022/03/27 10:52:42;;;;;;;15.70;9.33;;;;;;;22.78;18.12;95383.41;5057262;28;20219;-79
2022/03/27 10:55:09;;;;;;;10.70;6.70;;;;;;;22.34;18.33;95367.50;5057504;28;20500;-80
2022/03/27 10:57:35;;;;;;;15.60;8.80;;;;;;;21.04;19.41;95360.69;5059797;28;20433;-80
2022/03/27 11:00:01;;;;;;;19.53;10.27;;;;;;;22.57;18.46;95374.41;5053171;28;20420;-81
2022/03/27 11:02:48;;;;;;;11.90;9.87;;;;;;;22.30;18.63;95372.53;5040510;28;20298;-80
2022/03/27 11:05:29;;;;;;;13.83;8.40;;;;;;;21.54;19.18;95362.50;5052472;28;20408;-80
2022/03/27 11:08:16;;;;;;;16.33;10.13;;;;;;;22.36;18.01;95371.53;5050605;28;20443;-80
2022/03/27 11:10:51;;;;;;;10.73;8.43;;;;;;;22.87;17.13;95354.41;5047480;28;20412;-80
2022/03/27 11:13:30;;;;;;;11.97;8.80;;;;;;;23.04;17.51;95355.09;5061848;28;20800;-80
2022/03/27 11:16:13;;;;;;;12.43;9.47;;;;;;;22.27;18.21;95340.22;5061536;28;20433;-78
2022/03/27 11:18:41;;;;;;;11.40;9.40;;;;;;;22.19;18.37;95346.78;5030978;28;20472;-81
2022/03/27 11:21:09;;;;;;;15.23;10.60;;;;;;;22.65;17.97;95347.28;5050410;28;20525;-79
2022/03/27 11:23:37;;;;;;;10.33;8.47;;;;;;;22.43;18.07;95334.00;5048150;28;20945;-80
2022/03/27 11:26:05;;;;;;;14.30;9.90;;;;;;;21.51;18.78;95344.34;5028755;28;20430;-78
2022/03/27 11:28:45;;;;;;;10.57;9.03;;;;;;;22.35;18.30;95329.91;5047807;28;20433;-78
2022/03/27 11:31:10;;;;;;;13.57;9.60;;;;;;;21.24;19.21;95330.88;5029208;28;20804;-80